createdAt,value
2018-07-02T00:01:18.934Z,22.67
2018-07-02T00:03:50.955Z,20.27
2018-07-02T00:06:42.771Z,18.77
2018-07-02T00:09:13.872Z,20.97
2018-07-02T00:11:45.742Z,19.23
2018-07-02T00:14:17.899Z,20.23
2018-07-02T00:16:49.782Z,19.90
2018-07-02T00:19:21.899Z,20.00
2018-07-02T00:21:53.950Z,20.83
2018-07-02T00:24:24.991Z,22.47
2018-07-02T00:26:56.731Z,18.87
2018-07-02T00:29:28.650Z,18.97
2018-07-02T00:32:00.521Z,19.70
2018-07-02T00:34:31.366Z,20.50
2018-07-02T00:37:03.127Z,18.73
2018-07-02T00:39:36.899Z,22.27
2018-07-02T00:42:08.787Z,21.67
2018-07-02T00:44:40.910Z,19.70
2018-07-02T00:47:11.822Z,18.77
2018-07-02T00:49:44.024Z,19.87
2018-07-02T00:52:15.676Z,19.37
2018-07-02T00:54:46.809Z,20.20
2018-07-02T00:57:17.716Z,19.07
2018-07-02T00:59:49.936Z,18.20
2018-07-02T01:02:22.057Z,19.37
2018-07-02T01:04:54.376Z,20.03
2018-07-02T01:07:26.077Z,20.60
2018-07-02T01:09:58.734Z,20.27
2018-07-02T01:12:30.330Z,19.80
2018-07-02T01:15:02.255Z,18.33
2018-07-02T01:17:34.191Z,18.27
2018-07-02T01:20:06.531Z,17.73
2018-07-02T01:22:37.671Z,19.50
2018-07-02T01:25:09.530Z,18.63
2018-07-02T01:27:41.116Z,19.60
2018-07-02T01:30:12.909Z,18.80
2018-07-02T01:32:44.870Z,19.17
2018-07-02T01:35:16.598Z,20.67
2018-07-02T01:37:48.091Z,19.17
2018-07-02T01:40:21.432Z,18.63
2018-07-02T01:42:53.378Z,19.10
2018-07-02T01:45:25.442Z,19.00
2018-07-02T01:47:57.482Z,18.83
2018-07-02T01:50:29.324Z,18.37
2018-07-02T01:53:01.102Z,17.23
2018-07-02T01:55:33.076Z,18.77
2018-07-02T01:58:04.861Z,19.00
2018-07-02T02:00:36.917Z,17.63
2018-07-02T02:03:07.721Z,19.10
2018-07-02T02:05:40.492Z,17.70
2018-07-02T02:08:12.305Z,17.80
2018-07-02T02:10:44.830Z,19.77
2018-07-02T02:13:16.858Z,18.00
2018-07-02T02:15:49.093Z,17.90
2018-07-02T02:18:20.770Z,19.03
2018-07-02T02:20:51.598Z,18.90
2018-07-02T02:23:23.396Z,18.97
2018-07-02T02:26:05.576Z,18.97
2018-07-02T02:28:39.345Z,18.30
2018-07-02T02:31:11.338Z,18.70
2018-07-02T02:33:42.969Z,20.37
2018-07-02T02:36:14.825Z,17.90
2018-07-02T02:38:46.618Z,20.10
2018-07-02T02:41:20.476Z,19.67
2018-07-02T02:43:52.599Z,19.97
2018-07-02T02:46:24.442Z,20.30
2018-07-02T02:48:56.322Z,20.53
2018-07-02T02:51:28.544Z,19.07
2018-07-02T02:54:00.390Z,20.53
2018-07-02T02:56:32.494Z,21.33
2018-07-02T02:59:04.519Z,19.10
2018-07-02T03:01:36.663Z,19.93
2018-07-02T03:04:08.621Z,19.80
2018-07-02T03:06:40.958Z,19.13
2018-07-02T03:09:12.729Z,21.60
2018-07-02T03:11:44.910Z,19.80
2018-07-02T03:14:16.969Z,20.83
2018-07-02T03:16:49.085Z,22.30
2018-07-02T03:19:20.649Z,21.17
2018-07-02T03:21:52.730Z,20.80
2018-07-02T03:24:24.452Z,21.07
2018-07-02T03:26:56.470Z,22.80
2018-07-02T03:29:28.212Z,20.77
2018-07-02T03:32:00.475Z,21.20
2018-07-02T03:34:32.570Z,20.77
2018-07-02T03:37:04.913Z,18.67
2018-07-02T03:39:36.853Z,19.73
2018-07-02T03:42:10.594Z,17.63
2018-07-02T03:44:42.578Z,19.17
2018-07-02T03:47:15.212Z,19.80
2018-07-02T03:49:47.082Z,20.10
2018-07-02T03:52:19.715Z,17.77
2018-07-02T03:54:51.518Z,18.00
2018-07-02T03:57:23.635Z,17.33
2018-07-02T03:59:55.322Z,17.03
2018-07-02T04:02:27.443Z,17.60
2018-07-02T04:04:59.311Z,19.00
2018-07-02T04:07:31.479Z,18.70
2018-07-02T04:10:03.470Z,18.73
2018-07-02T04:12:35.542Z,17.60
2018-07-02T04:15:07.487Z,17.03
2018-07-02T04:17:40.170Z,19.10
2018-07-02T04:20:12.017Z,18.57
2018-07-02T04:22:44.415Z,19.20
2018-07-02T04:25:16.223Z,18.43
2018-07-02T04:27:48.279Z,17.70
2018-07-02T04:30:20.206Z,17.40
2018-07-02T04:32:53.353Z,18.13
2018-07-02T04:35:25.046Z,20.00
2018-07-02T04:37:57.285Z,18.67
2018-07-02T04:40:29.065Z,18.40
2018-07-02T04:43:02.078Z,17.73
2018-07-02T04:45:34.045Z,17.40
2018-07-02T04:48:06.370Z,18.80
2018-07-02T04:50:38.499Z,18.20
2018-07-02T04:53:10.783Z,20.70
2018-07-02T04:55:42.700Z,18.57
2018-07-02T04:58:15.129Z,20.97
2018-07-02T05:00:46.894Z,19.60
2018-07-02T05:03:18.950Z,19.27
2018-07-02T05:05:50.857Z,17.70
2018-07-02T05:08:22.681Z,20.43
2018-07-02T05:10:54.313Z,18.77
2018-07-02T05:13:26.339Z,18.65
2018-07-02T05:15:57.175Z,17.57
2018-07-02T05:18:29.046Z,17.62
2018-07-02T05:21:00.797Z,19.77
2018-07-02T05:23:32.725Z,19.32
2018-07-02T05:26:04.690Z,18.92
2018-07-02T05:28:36.746Z,18.65
2018-07-02T05:31:08.681Z,18.67
2018-07-02T05:33:40.935Z,19.45
2018-07-02T05:36:12.827Z,17.62
2018-07-02T05:38:44.394Z,19.07
2018-07-02T05:41:16.596Z,18.50
2018-07-02T05:43:49.725Z,19.65
2018-07-02T05:46:21.796Z,18.73
2018-07-02T05:48:53.697Z,18.30
2018-07-02T05:51:25.574Z,18.45
2018-07-02T05:53:57.738Z,17.30
2018-07-02T05:56:29.659Z,20.40
2018-07-02T05:59:01.861Z,19.75
2018-07-02T06:01:32.728Z,19.23
2018-07-02T06:04:04.822Z,19.92
2018-07-02T06:06:36.828Z,17.12
2018-07-02T06:09:12.073Z,18.23
2018-07-02T06:11:43.898Z,18.95
2018-07-02T06:14:16.123Z,18.42
2018-07-02T06:16:47.021Z,19.07
2018-07-02T06:19:19.057Z,19.23
2018-07-02T06:21:50.819Z,18.67
2018-07-02T06:24:23.090Z,19.87
2018-07-02T06:26:55.010Z,19.95
2018-07-02T06:29:26.544Z,18.77
2018-07-02T06:31:58.262Z,18.87
2018-07-02T06:34:34.439Z,19.85
2018-07-02T06:37:06.473Z,20.55
2018-07-02T06:39:38.268Z,19.50
2018-07-02T06:42:10.027Z,21.00
2018-07-02T06:44:43.622Z,22.20
2018-07-02T06:47:15.284Z,21.60
2018-07-02T06:49:47.275Z,19.52
2018-07-02T06:52:19.064Z,19.90
2018-07-02T06:54:50.744Z,20.30
2018-07-02T06:57:22.298Z,20.88
2018-07-02T06:59:54.301Z,19.87
2018-07-02T07:02:25.986Z,20.85
2018-07-02T07:04:58.269Z,20.52
2018-07-02T07:07:29.995Z,17.25
2018-07-02T07:10:02.375Z,19.48
2018-07-02T07:12:34.230Z,19.45
2018-07-02T07:15:06.750Z,18.17
2018-07-02T07:17:38.531Z,20.12
2018-07-02T07:20:10.798Z,19.87
2018-07-02T07:22:42.603Z,19.52
2018-07-02T07:25:14.694Z,20.57
2018-07-02T07:27:46.586Z,21.35
2018-07-02T07:30:18.603Z,19.65
2018-07-02T07:32:54.798Z,18.65
2018-07-02T07:35:26.018Z,19.70
2018-07-02T07:37:57.757Z,18.87
2018-07-02T07:40:29.641Z,19.57
2018-07-02T07:43:01.471Z,20.12
2018-07-02T07:45:34.007Z,19.70
2018-07-02T07:48:05.761Z,19.05
2018-07-02T07:50:37.747Z,21.37
2018-07-02T07:53:08.728Z,20.32
2018-07-02T07:55:40.535Z,20.17
2018-07-02T07:58:12.353Z,19.00
2018-07-02T08:00:44.556Z,19.98
2018-07-02T08:03:16.334Z,19.75
2018-07-02T08:05:48.475Z,18.30
2018-07-02T08:08:20.266Z,19.90
2018-07-02T08:10:52.523Z,18.60
2018-07-02T08:13:24.504Z,18.42
2018-07-02T08:15:55.802Z,20.72
2018-07-02T08:18:27.602Z,18.65
2018-07-02T08:20:59.971Z,19.23
2018-07-02T08:23:31.679Z,19.17
2018-07-02T08:26:03.798Z,18.73
2018-07-02T08:28:35.769Z,19.47
2018-07-02T08:31:08.054Z,19.00
2018-07-02T08:33:39.787Z,19.52
2018-07-02T08:36:11.658Z,22.05
2018-07-02T08:38:43.335Z,20.50
2018-07-02T08:41:15.213Z,20.43
2018-07-02T08:43:47.031Z,21.07
2018-07-02T08:46:20.747Z,20.75
2018-07-02T08:48:52.566Z,20.43
2018-07-02T08:51:24.785Z,20.45
2018-07-02T08:53:55.662Z,20.37
2018-07-02T08:56:27.715Z,19.70
2018-07-02T08:58:59.558Z,22.33
2018-07-02T09:01:31.879Z,21.10
2018-07-02T09:04:03.730Z,18.87
2018-07-02T09:06:35.851Z,20.80
2018-07-02T09:09:11.855Z,21.27
2018-07-02T09:11:43.811Z,18.87
2018-07-02T09:14:15.537Z,19.80
2018-07-02T09:16:47.425Z,19.50
2018-07-02T09:19:19.205Z,18.43
2018-07-02T09:21:51.295Z,20.80
2018-07-02T09:24:23.086Z,21.47
2018-07-02T09:26:55.191Z,19.47
2018-07-02T09:29:27.110Z,18.97
2018-07-02T09:31:58.874Z,20.30
2018-07-02T09:34:30.558Z,19.73
2018-07-02T09:37:02.799Z,17.97
2018-07-02T09:39:34.596Z,20.27
2018-07-02T09:42:06.743Z,21.47
2018-07-02T09:44:38.551Z,21.53
2018-07-02T09:47:12.372Z,19.40
2018-07-02T09:49:44.121Z,20.23
2018-07-02T09:52:16.037Z,19.63
2018-07-02T09:54:47.685Z,19.30
2018-07-02T09:57:19.743Z,19.70
2018-07-02T09:59:51.530Z,18.43
2018-07-02T10:02:23.598Z,20.03
2018-07-02T10:04:55.107Z,20.07
2018-07-02T10:07:26.949Z,21.30
2018-07-02T10:09:58.610Z,21.00
2018-07-02T10:12:30.469Z,19.37
2018-07-02T10:15:01.442Z,21.00
2018-07-02T10:17:33.243Z,20.20
2018-07-02T10:20:05.311Z,19.30
2018-07-02T10:22:37.521Z,19.57
2018-07-02T10:25:09.387Z,19.77
2018-07-02T10:27:41.677Z,20.00
2018-07-02T10:30:12.555Z,18.50
2018-07-02T10:32:44.483Z,18.73
2018-07-02T10:35:16.226Z,18.50
2018-07-02T10:37:48.402Z,17.07
2018-07-02T10:40:20.270Z,20.10
2018-07-02T10:42:52.140Z,18.30
2018-07-02T10:45:23.750Z,18.27
2018-07-02T10:47:56.497Z,20.23
2018-07-02T10:50:28.466Z,18.60
2018-07-02T10:53:00.538Z,21.63
2018-07-02T10:55:32.087Z,19.93
2018-07-02T10:58:04.605Z,20.50
2018-07-02T11:00:36.163Z,21.73
2018-07-02T11:03:08.347Z,20.53
2018-07-02T11:05:40.600Z,22.70
2018-07-02T11:08:12.670Z,20.20
2018-07-02T11:10:44.917Z,21.60
2018-07-02T11:13:16.730Z,20.50
2018-07-02T11:15:48.426Z,20.53
2018-07-02T11:18:20.780Z,20.57
2018-07-02T11:20:52.635Z,22.40
2018-07-02T11:23:24.809Z,21.30
2018-07-02T11:25:56.706Z,21.77
2018-07-02T11:28:28.817Z,20.40
2018-07-02T11:31:00.732Z,20.00
2018-07-02T11:33:32.847Z,20.83
2018-07-02T11:36:04.751Z,19.00
2018-07-02T11:38:36.675Z,21.27
2018-07-02T11:41:08.409Z,22.20
2018-07-02T11:43:40.406Z,20.27
2018-07-02T11:46:12.455Z,20.33
2018-07-02T11:48:45.406Z,20.93
2018-07-02T11:51:17.133Z,21.43
2018-07-02T11:53:49.328Z,22.00
2018-07-02T11:56:20.973Z,22.53
2018-07-02T11:58:53.870Z,22.53
2018-07-02T12:01:25.767Z,20.30
2018-07-02T12:03:57.779Z,21.57
2018-07-02T12:06:29.777Z,21.20
2018-07-02T12:09:01.853Z,22.07
2018-07-02T12:11:32.849Z,24.97
2018-07-02T12:14:05.056Z,22.47
2018-07-02T12:16:36.786Z,22.10
2018-07-02T12:19:09.113Z,22.70
2018-07-02T12:21:40.851Z,25.30
2018-07-02T12:24:12.877Z,27.30
2018-07-02T12:26:44.467Z,26.90
2018-07-02T12:29:16.418Z,28.20
2018-07-02T12:31:48.046Z,29.23
2018-07-02T12:34:20.855Z,30.27
2018-07-02T12:36:52.704Z,27.93
2018-07-02T12:39:24.785Z,29.00
2018-07-02T12:41:56.701Z,29.93
2018-07-02T12:44:29.029Z,30.00
2018-07-02T12:47:00.746Z,29.20
2018-07-02T12:49:33.722Z,28.73
2018-07-02T12:52:05.353Z,32.50
2018-07-02T12:54:37.239Z,31.13
2018-07-02T12:57:09.203Z,29.63
2018-07-02T12:59:41.153Z,29.40
2018-07-02T13:02:12.797Z,30.90
2018-07-02T13:04:44.922Z,30.80
2018-07-02T13:07:16.569Z,30.03
2018-07-02T13:09:48.643Z,30.67
2018-07-02T13:12:20.463Z,32.27
2018-07-02T13:14:52.640Z,30.13
2018-07-02T13:17:24.709Z,31.37
2018-07-02T13:19:56.984Z,30.77
2018-07-02T13:22:28.798Z,32.83
2018-07-02T13:25:00.679Z,35.40
2018-07-02T13:27:32.322Z,33.20
2018-07-02T13:30:04.466Z,32.53
2018-07-02T13:32:36.309Z,32.70
2018-07-02T13:35:08.840Z,36.07
2018-07-02T13:37:40.482Z,36.13
2018-07-02T13:40:13.255Z,37.30
2018-07-02T13:42:45.095Z,33.97
2018-07-02T13:45:16.945Z,30.43
2018-07-02T13:47:48.578Z,30.20
2018-07-02T13:50:22.273Z,32.27
2018-07-02T13:52:53.959Z,32.87
2018-07-02T13:55:26.399Z,36.03
2018-07-02T13:57:58.083Z,34.53
2018-07-02T14:00:30.100Z,31.47
2018-07-02T14:03:01.930Z,34.30
2018-07-02T14:05:33.991Z,34.47
2018-07-02T14:08:06.146Z,33.33
2018-07-02T14:10:38.529Z,33.53
2018-07-02T14:13:10.466Z,37.43
2018-07-02T14:15:42.364Z,36.43
2018-07-02T14:18:13.386Z,35.43
2018-07-02T14:20:45.746Z,36.03
2018-07-02T14:23:17.395Z,36.80
2018-07-02T14:25:49.938Z,37.00
2018-07-02T14:28:21.949Z,39.27
2018-07-02T14:30:54.011Z,39.20
2018-07-02T14:33:25.775Z,39.93
2018-07-02T14:35:58.039Z,39.83
2018-07-02T14:38:29.875Z,43.53
2018-07-02T14:41:02.111Z,42.30
2018-07-02T14:43:34.199Z,45.80
2018-07-02T14:46:06.826Z,41.67
2018-07-02T14:48:38.585Z,42.17
2018-07-02T14:51:12.563Z,40.73
2018-07-02T14:53:44.822Z,41.80
2018-07-02T14:56:16.964Z,42.13
2018-07-02T14:58:55.199Z,44.00
2018-07-02T15:01:27.273Z,41.87
2018-07-02T15:03:59.283Z,42.73
2018-07-02T15:06:31.436Z,41.33
2018-07-02T15:09:03.551Z,41.53
2018-07-02T15:11:35.837Z,41.27
2018-07-02T15:14:07.603Z,41.87
2018-07-02T15:16:39.494Z,42.20
2018-07-02T15:19:11.114Z,44.63
2018-07-02T15:21:43.093Z,46.30
2018-07-02T15:24:14.834Z,43.90
2018-07-02T15:26:47.127Z,45.47
2018-07-02T15:29:18.802Z,43.53
2018-07-02T15:31:49.961Z,42.67
2018-07-02T15:34:21.683Z,43.87
2018-07-02T15:36:52.818Z,44.20
2018-07-02T15:39:24.598Z,45.90
2018-07-02T15:41:56.572Z,43.77
2018-07-02T15:44:28.374Z,43.73
2018-07-02T15:47:00.003Z,42.67
2018-07-02T15:49:32.461Z,43.23
2018-07-02T15:52:05.116Z,44.70
2018-07-02T15:54:36.971Z,40.57
2018-07-02T15:57:09.078Z,43.13
2018-07-02T15:59:40.941Z,43.60
2018-07-02T16:02:12.638Z,44.00
2018-07-02T16:04:44.370Z,45.43
2018-07-02T16:07:16.358Z,45.37
2018-07-02T16:09:48.209Z,47.33
2018-07-02T16:12:20.447Z,48.20
2018-07-02T16:14:52.146Z,46.83
2018-07-02T16:17:24.853Z,44.77
2018-07-02T16:19:56.654Z,48.30
2018-07-02T16:22:30.473Z,46.10
2018-07-02T16:25:02.433Z,44.53
2018-07-02T16:27:34.490Z,44.73
2018-07-02T16:30:06.911Z,45.03
2018-07-02T16:32:39.044Z,41.27
2018-07-02T16:35:10.710Z,43.63
2018-07-02T16:37:42.534Z,44.07
2018-07-02T16:40:14.470Z,42.13
2018-07-02T16:42:46.185Z,42.60
2018-07-02T16:45:16.896Z,45.30
2018-07-02T16:47:49.014Z,45.37
2018-07-02T16:50:21.241Z,44.53
2018-07-02T16:52:54.458Z,45.43
2018-07-02T16:55:26.138Z,46.30
2018-07-02T16:57:58.307Z,43.83
2018-07-02T17:00:30.265Z,47.20
2018-07-02T17:03:02.356Z,48.10
2018-07-02T17:05:34.486Z,47.63
2018-07-02T17:08:07.673Z,49.97
2018-07-02T17:10:39.469Z,49.03
2018-07-02T17:13:12.081Z,50.97
2018-07-02T17:15:44.114Z,52.17
2018-07-02T17:18:16.110Z,52.87
2018-07-02T17:20:47.904Z,54.97
2018-07-02T17:23:19.133Z,54.40
2018-07-02T17:25:51.008Z,53.37
2018-07-02T17:28:22.826Z,55.83
2018-07-02T17:30:54.611Z,63.10
2018-07-02T17:33:26.713Z,53.53
2018-07-02T17:35:58.113Z,51.23
2018-07-02T17:38:29.116Z,51.97
2018-07-02T17:41:01.203Z,53.77
2018-07-02T17:43:33.101Z,51.53
2018-07-02T17:46:05.270Z,51.50
2018-07-02T17:48:37.593Z,52.30
2018-07-02T17:51:09.425Z,50.37
2018-07-02T17:53:42.954Z,51.70
2018-07-02T17:56:15.074Z,51.83
2018-07-02T17:58:47.293Z,53.57
2018-07-02T18:01:19.005Z,53.87
2018-07-02T18:03:51.213Z,52.73
2018-07-02T18:06:23.020Z,52.07
2018-07-02T18:08:54.010Z,51.50
2018-07-02T18:11:25.854Z,51.90
2018-07-02T18:13:57.891Z,55.17
2018-07-02T18:16:30.212Z,51.13
2018-07-02T18:19:02.365Z,48.07
2018-07-02T18:21:34.187Z,51.47
2018-07-02T18:24:05.956Z,56.70
2018-07-02T18:26:39.738Z,57.10
2018-07-02T18:29:12.217Z,56.70
2018-07-02T18:31:43.877Z,58.30
2018-07-02T18:34:16.064Z,55.30
2018-07-02T18:36:47.734Z,57.33
2018-07-02T18:39:19.769Z,54.20
2018-07-02T18:41:51.543Z,54.63
2018-07-02T18:44:23.693Z,52.07
2018-07-02T18:46:55.962Z,52.80
2018-07-02T18:49:28.658Z,52.60
2018-07-02T18:52:00.947Z,46.70
2018-07-02T18:54:42.565Z,49.73
